createdAt,value
2023-05-05T00:01:46.613Z,9.88
2023-05-05T00:06:49.051Z,10.15
2023-05-05T00:11:50.904Z,10.57
2023-05-05T00:16:52.778Z,9.90
2023-05-05T00:21:54.619Z,10.05
2023-05-05T00:26:56.444Z,9.30
2023-05-05T00:31:58.251Z,9.30
2023-05-05T00:37:00.104Z,9.43
2023-05-05T00:42:01.958Z,9.50
2023-05-05T00:47:04.261Z,8.80
2023-05-05T00:52:07.503Z,8.85
2023-05-05T00:57:10.937Z,8.68
2023-05-05T01:02:13.010Z,8.73
2023-05-05T01:07:39.620Z,8.30
2023-05-05T01:12:44.329Z,8.70
2023-05-05T01:17:56.015Z,8.60
2023-05-05T01:23:03.939Z,8.05
2023-05-05T01:28:19.639Z,8.73
2023-05-05T01:33:27.498Z,9.35
2023-05-05T01:38:44.612Z,8.40
2023-05-05T01:43:50.366Z,8.32
2023-05-05T01:48:53.846Z,8.48
2023-05-05T01:53:59.321Z,7.78
2023-05-05T01:59:02.471Z,8.25
2023-05-05T02:04:07.177Z,7.40
2023-05-05T02:09:12.141Z,8.23
2023-05-05T02:14:15.435Z,7.40
2023-05-05T02:19:21.511Z,8.60
2023-05-05T02:24:25.500Z,7.82
2023-05-05T02:29:34.654Z,8.32
2023-05-05T02:34:40.356Z,8.27
2023-05-05T02:39:58.432Z,7.63
2023-05-05T02:45:10.365Z,7.72
2023-05-05T02:50:18.757Z,8.35
2023-05-05T02:55:42.341Z,7.85
2023-05-05T03:01:18.879Z,7.80
2023-05-05T03:06:22.892Z,7.45
2023-05-05T03:11:34.618Z,6.88
2023-05-05T03:16:42.632Z,8.30
2023-05-05T03:21:45.826Z,7.95
2023-05-05T03:26:49.969Z,7.32
2023-05-05T03:31:55.354Z,7.20
2023-05-05T03:36:57.380Z,7.47
2023-05-05T03:41:59.618Z,6.90
2023-05-05T03:47:05.597Z,7.47
2023-05-05T03:52:10.105Z,7.75
2023-05-05T03:57:13.039Z,8.27
2023-05-05T04:02:18.491Z,7.45
2023-05-05T04:07:22.788Z,7.53
2023-05-05T04:12:25.040Z,7.15
2023-05-05T04:17:27.595Z,8.07
2023-05-05T04:22:30.205Z,7.63
2023-05-05T04:27:32.754Z,8.18
2023-05-05T04:32:35.533Z,8.15
2023-05-05T04:37:37.651Z,8.80
2023-05-05T04:42:39.885Z,8.18
2023-05-05T04:47:41.878Z,8.10
2023-05-05T04:52:43.891Z,8.00
2023-05-05T04:57:45.794Z,8.35
2023-05-05T05:02:47.747Z,9.02
2023-05-05T05:07:49.661Z,9.55
2023-05-05T05:12:51.573Z,9.35
2023-05-05T05:17:53.700Z,13.57
2023-05-05T05:22:55.694Z,12.82
2023-05-05T05:28:08.852Z,12.75
2023-05-05T05:33:15.090Z,11.32
2023-05-05T05:38:18.140Z,10.00
2023-05-05T05:43:21.358Z,10.18
2023-05-05T05:48:25.107Z,10.93
2023-05-05T05:53:27.595Z,10.35
2023-05-05T05:58:30.300Z,10.32
2023-05-05T06:03:32.548Z,11.48
2023-05-05T06:08:34.507Z,13.07
2023-05-05T06:13:36.522Z,12.10
2023-05-05T06:18:39.147Z,12.05
2023-05-05T06:23:42.204Z,12.50
2023-05-05T06:28:44.268Z,12.07
2023-05-05T06:33:46.093Z,14.05
2023-05-05T06:38:47.896Z,13.13
2023-05-05T06:43:49.743Z,13.80
2023-05-05T06:48:51.895Z,13.38
2023-05-05T06:53:53.787Z,14.02
2023-05-05T06:58:55.895Z,13.95
2023-05-05T07:03:57.754Z,14.32
2023-05-05T07:08:59.567Z,14.13
2023-05-05T07:14:01.421Z,14.27
2023-05-05T07:19:06.242Z,14.05
2023-05-05T07:24:08.236Z,14.75
2023-05-05T07:29:10.014Z,14.30
2023-05-05T07:34:11.870Z,14.70
2023-05-05T07:39:15.334Z,14.02
2023-05-05T07:44:17.157Z,14.70
2023-05-05T07:49:20.112Z,14.75
2023-05-05T07:54:21.907Z,14.40
2023-05-05T07:59:23.754Z,14.35
2023-05-05T08:04:25.700Z,14.45
2023-05-05T08:09:27.528Z,14.10
2023-05-05T08:14:30.032Z,14.55
2023-05-05T08:19:31.865Z,14.38
2023-05-05T08:24:33.700Z,14.93
2023-05-05T08:29:35.713Z,14.45
2023-05-05T08:34:37.530Z,14.15
2023-05-05T08:39:39.328Z,14.73
2023-05-05T08:44:41.281Z,14.23
2023-05-05T08:49:47.207Z,14.20
2023-05-05T08:55:00.865Z,14.27
2023-05-05T09:00:03.865Z,14.40
2023-05-05T09:05:07.318Z,14.52
2023-05-05T09:10:11.169Z,14.52
2023-05-05T09:15:14.719Z,14.38
2023-05-05T09:20:16.725Z,14.60
2023-05-05T09:25:18.971Z,14.18
2023-05-05T09:30:25.221Z,14.70
2023-05-05T09:35:27.161Z,13.65
2023-05-05T09:40:48.372Z,14.30
2023-05-05T09:45:51.247Z,14.27
2023-05-05T09:50:53.440Z,14.25
2023-05-05T09:55:59.957Z,14.77
2023-05-05T10:01:01.803Z,14.20
2023-05-05T10:06:04.710Z,14.13
2023-05-05T10:11:07.243Z,13.95
2023-05-05T10:16:11.766Z,14.32
2023-05-05T10:21:19.975Z,14.70
2023-05-05T10:26:23.425Z,14.70
2023-05-05T10:31:33.895Z,14.60
2023-05-05T10:36:38.577Z,14.38
2023-05-05T10:41:41.472Z,15.05
2023-05-05T10:46:44.696Z,14.38
2023-05-05T10:51:55.601Z,14.85
2023-05-05T10:56:59.095Z,14.98
2023-05-05T11:02:01.167Z,15.00
2023-05-05T11:07:12.469Z,14.93
2023-05-05T11:12:16.421Z,15.13
2023-05-05T11:17:46.941Z,14.95
2023-05-05T11:23:04.186Z,15.00
2023-05-05T11:28:09.358Z,14.13
2023-05-05T11:33:33.239Z,13.85
2023-05-05T11:38:44.251Z,14.20
2023-05-05T11:43:46.337Z,14.77
2023-05-05T11:48:49.344Z,14.88
2023-05-05T11:53:51.219Z,15.23
2023-05-05T11:59:10.180Z,14.70
2023-05-05T12:04:13.223Z,15.02
2023-05-05T12:09:23.022Z,15.05
2023-05-05T12:14:25.762Z,14.02
2023-05-05T12:19:33.375Z,14.80
2023-05-05T12:24:35.471Z,14.70
2023-05-05T12:29:38.143Z,15.13
2023-05-05T12:34:40.104Z,15.20
2023-05-05T12:39:41.998Z,14.95
2023-05-05T12:44:44.924Z,15.13
2023-05-05T12:49:47.511Z,15.32
2023-05-05T12:54:56.254Z,15.07
2023-05-05T12:59:58.395Z,14.93
2023-05-05T13:05:00.236Z,15.25
2023-05-05T13:10:10.877Z,14.80
2023-05-05T13:15:12.849Z,14.85
2023-05-05T13:20:14.693Z,14.80
2023-05-05T13:25:16.703Z,15.65
2023-05-05T13:30:18.621Z,15.60
2023-05-05T13:35:20.548Z,14.98
2023-05-05T13:40:23.820Z,15.02
2023-05-05T13:45:27.589Z,15.00
2023-05-05T13:50:29.533Z,15.02
2023-05-05T13:55:31.533Z,14.82
2023-05-05T14:00:34.744Z,15.07
2023-05-05T14:05:38.833Z,14.90
2023-05-05T14:10:40.698Z,15.35
2023-05-05T14:15:42.639Z,15.40
2023-05-05T14:20:44.501Z,15.45
2023-05-05T14:25:46.417Z,15.73
2023-05-05T14:30:48.270Z,15.30
2023-05-05T14:35:50.203Z,15.20
2023-05-05T14:40:52.068Z,14.95
2023-05-05T14:45:53.971Z,15.27
2023-05-05T14:50:56.004Z,14.93
2023-05-05T14:55:57.824Z,14.75
2023-05-05T15:01:00.570Z,15.25
2023-05-05T15:06:02.537Z,15.70
2023-05-05T15:11:04.713Z,15.88
2023-05-05T15:16:10.110Z,16.48
2023-05-05T15:21:11.984Z,16.27
2023-05-05T15:26:13.849Z,16.38
2023-05-05T15:31:15.767Z,16.92
2023-05-05T15:36:22.618Z,16.73
2023-05-05T15:41:27.213Z,16.63
2023-05-05T15:46:33.249Z,16.08
2023-05-05T15:51:35.263Z,16.58
2023-05-05T15:56:37.159Z,17.23
2023-05-05T16:01:39.158Z,17.58
2023-05-05T16:06:41.178Z,16.80
2023-05-05T16:11:43.355Z,17.02
2023-05-05T16:16:45.214Z,16.48
2023-05-05T16:21:48.241Z,16.88
2023-05-05T16:26:50.110Z,17.77
2023-05-05T16:31:52.104Z,17.10
2023-05-05T16:36:53.965Z,16.73
2023-05-05T16:41:55.779Z,16.70
2023-05-05T16:46:58.399Z,16.38
2023-05-05T16:52:00.367Z,16.73
2023-05-05T16:57:03.830Z,16.92
2023-05-05T17:02:06.107Z,16.40
2023-05-05T17:07:07.986Z,16.83
2023-05-05T17:12:09.910Z,16.88
2023-05-05T17:17:12.063Z,16.10
2023-05-05T17:22:13.883Z,16.17
2023-05-05T17:27:15.676Z,16.63
2023-05-05T17:32:17.561Z,16.17
2023-05-05T17:37:19.409Z,16.92
2023-05-05T17:42:23.093Z,16.50
2023-05-05T17:47:25.106Z,16.13
2023-05-05T17:52:27.087Z,15.57
2023-05-05T17:57:28.945Z,14.00
2023-05-05T18:02:30.958Z,12.85
2023-05-05T18:07:33.725Z,11.05
2023-05-05T18:12:35.783Z,9.63
2023-05-05T18:17:38.064Z,9.63
2023-05-05T18:22:39.978Z,8.60
2023-05-05T18:27:41.891Z,8.63
2023-05-05T18:32:43.918Z,8.13
2023-05-05T18:37:45.822Z,8.68
2023-05-05T18:42:47.698Z,7.22
2023-05-05T18:47:49.580Z,7.40
2023-05-05T18:52:51.465Z,7.43
2023-05-05T18:57:53.478Z,8.48
2023-05-05T19:02:55.345Z,6.95
2023-05-05T19:07:57.232Z,7.70
2023-05-05T19:12:59.266Z,7.68
2023-05-05T19:18:01.296Z,7.25
2023-05-05T19:23:05.229Z,8.07
2023-05-05T19:28:07.168Z,7.20
2023-05-05T19:33:09.219Z,6.70
2023-05-05T19:38:11.226Z,8.52
2023-05-05T19:43:13.191Z,7.53
2023-05-05T19:48:15.793Z,8.32
2023-05-05T19:53:17.661Z,11.98
2023-05-05T19:58:19.624Z,16.45
2023-05-05T20:03:21.627Z,9.05
2023-05-05T20:08:23.535Z,9.55
2023-05-05T20:13:25.401Z,15.00
2023-05-05T20:18:27.276Z,11.35
2023-05-05T20:23:29.175Z,8.88
2023-05-05T20:28:31.779Z,8.40
2023-05-05T20:33:34.439Z,8.57
2023-05-05T20:38:36.303Z,7.88
2023-05-05T20:43:41.043Z,9.20
2023-05-05T20:48:44.503Z,9.07
2023-05-05T20:53:46.387Z,10.68
2023-05-05T20:58:48.358Z,11.10
2023-05-05T21:03:50.528Z,9.02
2023-05-05T21:08:52.373Z,8.48
2023-05-05T21:13:54.216Z,8.32
2023-05-05T21:18:56.159Z,8.05
2023-05-05T21:23:58.062Z,7.07
2023-05-05T21:28:59.933Z,7.18
2023-05-05T21:34:02.532Z,6.45
2023-05-05T21:39:04.659Z,6.60
2023-05-05T21:44:06.543Z,7.18
2023-05-05T21:49:26.512Z,7.93
2023-05-05T21:54:28.362Z,7.32
2023-05-05T21:59:30.189Z,7.05
2023-05-05T22:04:32.016Z,6.45
2023-05-05T22:09:34.053Z,6.55
2023-05-05T22:14:36.066Z,8.02
2023-05-05T22:19:37.868Z,11.63
2023-05-05T22:24:39.676Z,10.40
2023-05-05T22:29:41.555Z,12.02
2023-05-05T22:34:43.375Z,13.57
2023-05-05T22:39:45.146Z,14.57
2023-05-05T22:44:47.092Z,14.32
2023-05-05T22:49:49.122Z,13.88
2023-05-05T22:54:51.023Z,14.25
2023-05-05T22:59:53.004Z,19.02
2023-05-05T23:04:54.896Z,19.70
2023-05-05T23:09:56.720Z,29.60
2023-05-05T23:14:58.632Z,15.32
2023-05-05T23:20:00.502Z,15.60
2023-05-05T23:25:02.306Z,16.00
2023-05-05T23:30:04.498Z,20.42
2023-05-05T23:35:06.950Z,20.48
2023-05-05T23:40:09.267Z,18.85
2023-05-05T23:45:11.712Z,16.65
2023-05-05T23:50:13.777Z,17.92
2023-05-05T23:55:15.564Z,16.20
